createdAt,value
2019-05-07T00:00:43.763Z,21.61
2019-05-07T00:01:42.305Z,21.63
2019-05-07T00:02:42.803Z,21.55
2019-05-07T00:03:42.248Z,21.52
2019-05-07T00:04:42.821Z,21.63
2019-05-07T00:05:42.736Z,21.58
2019-05-07T00:06:43.428Z,21.55
2019-05-07T00:07:42.495Z,21.63
2019-05-07T00:08:44.627Z,21.55
2019-05-07T00:09:43.067Z,21.59
2019-05-07T00:10:42.466Z,21.56
2019-05-07T00:11:42.609Z,21.58
2019-05-07T00:12:43.136Z,21.58
2019-05-07T00:13:44.084Z,21.58
2019-05-07T00:14:42.998Z,21.51
2019-05-07T00:15:42.771Z,21.56
2019-05-07T00:16:42.321Z,21.48
2019-05-07T00:17:42.876Z,21.56
2019-05-07T00:18:42.879Z,21.56
2019-05-07T00:19:43.227Z,21.58
2019-05-07T00:20:42.394Z,21.55
2019-05-07T00:21:42.431Z,21.53
2019-05-07T00:22:41.991Z,21.55
2019-05-07T00:23:43.237Z,21.56
2019-05-07T00:24:52.330Z,21.56
2019-05-07T00:25:42.280Z,21.53
2019-05-07T00:26:43.093Z,21.55
2019-05-07T00:27:42.727Z,21.58
2019-05-07T00:28:43.219Z,21.55
2019-05-07T00:29:42.921Z,21.52
2019-05-07T00:30:42.507Z,21.53
2019-05-07T00:31:42.128Z,21.53
2019-05-07T00:32:42.396Z,21.59
2019-05-07T00:33:43.213Z,21.56
2019-05-07T00:34:42.473Z,21.64
2019-05-07T00:35:42.906Z,21.61
2019-05-07T00:36:42.106Z,21.56
2019-05-07T00:37:43.120Z,21.64
2019-05-07T00:38:42.729Z,21.55
2019-05-07T00:39:42.446Z,21.53
2019-05-07T00:40:42.586Z,21.58
2019-05-07T00:41:42.678Z,21.61
2019-05-07T00:42:42.020Z,21.55
2019-05-07T00:43:42.866Z,21.63
2019-05-07T00:44:42.225Z,21.61
2019-05-07T00:45:42.126Z,21.48
2019-05-07T00:46:42.734Z,21.56
2019-05-07T00:47:42.599Z,21.52
2019-05-07T00:48:42.255Z,21.56
2019-05-07T00:49:42.575Z,21.51
2019-05-07T00:50:42.066Z,21.61
2019-05-07T00:51:42.438Z,21.53
2019-05-07T00:52:42.999Z,21.59
2019-05-07T00:53:42.377Z,21.52
2019-05-07T00:54:42.219Z,21.53
2019-05-07T00:55:52.807Z,21.63
2019-05-07T00:56:42.887Z,21.61
2019-05-07T00:57:42.858Z,21.61
2019-05-07T00:58:42.814Z,21.70
2019-05-07T00:59:42.908Z,21.67
2019-05-07T01:00:42.060Z,21.67
2019-05-07T01:01:43.282Z,21.64
2019-05-07T01:02:43.097Z,21.59
2019-05-07T01:03:42.452Z,21.63
2019-05-07T01:04:42.266Z,21.61
2019-05-07T01:05:43.197Z,21.64
2019-05-07T01:06:42.416Z,21.58
2019-05-07T01:07:41.919Z,21.59
2019-05-07T01:08:42.990Z,21.61
2019-05-07T01:09:43.030Z,21.59
2019-05-07T01:10:41.935Z,21.59
2019-05-07T01:11:42.870Z,21.58
2019-05-07T01:12:42.290Z,21.58
2019-05-07T01:13:43.069Z,21.64
2019-05-07T01:14:42.022Z,21.63
2019-05-07T01:15:43.013Z,21.68
2019-05-07T01:16:42.095Z,21.70
2019-05-07T01:17:42.571Z,21.66
2019-05-07T01:18:42.045Z,21.73
2019-05-07T01:19:42.298Z,21.73
2019-05-07T01:20:42.255Z,21.68
2019-05-07T01:21:43.084Z,21.70
2019-05-07T01:22:42.427Z,21.67
2019-05-07T01:23:42.751Z,21.63
2019-05-07T01:24:42.929Z,21.68
2019-05-07T01:25:42.986Z,21.59
2019-05-07T01:26:52.967Z,21.64
2019-05-07T01:27:42.687Z,21.63
2019-05-07T01:28:42.150Z,21.67
2019-05-07T01:29:42.935Z,21.56
2019-05-07T01:30:43.054Z,21.63
2019-05-07T01:31:42.995Z,21.58
2019-05-07T01:32:42.518Z,21.67
2019-05-07T01:33:42.380Z,21.61
2019-05-07T01:34:42.809Z,21.67
2019-05-07T01:35:42.363Z,21.63
2019-05-07T01:36:42.727Z,21.68
2019-05-07T01:37:42.174Z,21.66
2019-05-07T01:38:42.700Z,21.64
2019-05-07T01:39:42.195Z,21.59
2019-05-07T01:40:42.806Z,21.63
2019-05-07T01:41:41.973Z,21.64
2019-05-07T01:42:42.366Z,21.59
2019-05-07T01:43:42.815Z,21.63
2019-05-07T01:44:42.031Z,21.56
2019-05-07T01:45:46.364Z,21.66
2019-05-07T01:46:42.281Z,21.58
2019-05-07T01:47:42.484Z,21.64
2019-05-07T01:48:42.788Z,21.61
2019-05-07T01:49:42.173Z,21.58
2019-05-07T01:50:42.812Z,21.58
2019-05-07T01:51:42.286Z,21.59
2019-05-07T01:52:42.660Z,21.66
2019-05-07T01:53:42.839Z,21.58
2019-05-07T01:54:42.470Z,21.61
2019-05-07T01:55:42.734Z,21.56
2019-05-07T01:56:42.677Z,21.68
2019-05-07T01:57:52.278Z,21.71
2019-05-07T01:58:42.515Z,21.68
2019-05-07T01:59:42.653Z,21.67
2019-05-07T02:00:42.434Z,21.74
2019-05-07T02:01:42.884Z,21.73
2019-05-07T02:02:42.520Z,21.71
2019-05-07T02:03:42.035Z,21.71
2019-05-07T02:04:42.623Z,21.73
2019-05-07T02:05:42.427Z,21.68
2019-05-07T02:06:40.519Z,21.68
2019-05-07T02:07:42.770Z,21.67
2019-05-07T02:08:42.252Z,21.61
2019-05-07T02:09:42.412Z,21.58
2019-05-07T02:10:42.660Z,21.66
2019-05-07T02:11:42.250Z,21.67
2019-05-07T02:12:42.417Z,21.63
2019-05-07T02:13:42.046Z,21.67
2019-05-07T02:14:42.263Z,21.70
2019-05-07T02:15:42.641Z,21.61
2019-05-07T02:16:41.886Z,21.68
2019-05-07T02:17:40.398Z,21.61
2019-05-07T02:18:42.388Z,21.67
2019-05-07T02:19:42.377Z,21.61
2019-05-07T02:20:42.476Z,21.59
2019-05-07T02:21:42.381Z,21.58
2019-05-07T02:22:42.581Z,21.64
2019-05-07T02:23:42.416Z,21.58
2019-05-07T02:24:40.322Z,21.61
2019-05-07T02:25:42.015Z,21.63
2019-05-07T02:26:42.530Z,21.61
2019-05-07T02:27:42.092Z,21.58
2019-05-07T02:28:51.866Z,21.68
2019-05-07T02:29:40.268Z,21.61
2019-05-07T02:30:44.048Z,21.56
2019-05-07T02:31:43.770Z,21.61
2019-05-07T02:32:43.111Z,21.63
2019-05-07T02:33:43.109Z,21.64
2019-05-07T02:34:43.721Z,21.64
2019-05-07T02:35:40.211Z,21.70
2019-05-07T02:36:42.976Z,21.67
2019-05-07T02:37:48.381Z,21.64
2019-05-07T02:38:44.128Z,21.67
2019-05-07T02:39:40.155Z,21.71
2019-05-07T02:40:43.082Z,21.67
2019-05-07T02:41:40.149Z,21.64
2019-05-07T02:42:40.130Z,21.73
2019-05-07T02:43:42.862Z,21.73
2019-05-07T02:44:43.636Z,21.67
2019-05-07T02:45:40.098Z,21.67
2019-05-07T02:46:43.143Z,21.70
2019-05-07T02:47:40.085Z,21.77
2019-05-07T02:48:42.734Z,21.73
2019-05-07T02:49:40.060Z,21.74
2019-05-07T02:50:40.085Z,21.73
2019-05-07T02:51:43.227Z,21.75
2019-05-07T02:52:43.398Z,21.75
2019-05-07T02:53:42.853Z,21.74
2019-05-07T02:54:40.027Z,21.75
2019-05-07T02:55:43.280Z,21.73
2019-05-07T02:56:42.976Z,21.77
2019-05-07T02:57:43.253Z,21.71
2019-05-07T02:58:39.969Z,21.71
2019-05-07T02:59:54.463Z,21.66
2019-05-07T03:00:43.095Z,21.73
2019-05-07T03:01:43.030Z,21.67
2019-05-07T03:02:39.914Z,21.66
2019-05-07T03:03:39.897Z,21.67
2019-05-07T03:04:39.891Z,21.73
2019-05-07T03:05:42.820Z,21.75
2019-05-07T03:06:39.870Z,21.75
2019-05-07T03:07:42.457Z,21.67
2019-05-07T03:08:39.845Z,21.66
2019-05-07T03:09:42.818Z,21.70
2019-05-07T03:10:39.828Z,21.68
2019-05-07T03:11:39.813Z,21.68
2019-05-07T03:12:42.795Z,21.81
2019-05-07T03:13:39.805Z,21.68
2019-05-07T03:14:39.781Z,21.75
2019-05-07T03:15:39.770Z,21.73
2019-05-07T03:16:47.590Z,21.75
2019-05-07T03:17:42.977Z,21.75
2019-05-07T03:18:39.787Z,21.68
2019-05-07T03:19:42.772Z,21.81
2019-05-07T03:20:42.813Z,21.74
2019-05-07T03:21:39.708Z,21.67
2019-05-07T03:22:42.632Z,21.70
2019-05-07T03:23:42.681Z,21.73
2019-05-07T03:24:39.698Z,21.79
2019-05-07T03:25:42.982Z,21.82
2019-05-07T03:26:39.650Z,21.73
2019-05-07T03:27:39.639Z,21.79
2019-05-07T03:28:39.633Z,21.79
2019-05-07T03:29:39.623Z,21.75
2019-05-07T03:30:56.196Z,21.74
2019-05-07T03:31:46.073Z,21.81
2019-05-07T03:32:46.675Z,21.79
2019-05-07T03:33:46.404Z,21.81
2019-05-07T03:34:45.724Z,21.70
2019-05-07T03:35:45.801Z,21.82
2019-05-07T03:36:46.567Z,21.73
2019-05-07T03:37:43.366Z,21.70
2019-05-07T03:38:39.534Z,21.75
2019-05-07T03:39:39.523Z,21.75
2019-05-07T03:40:39.545Z,21.73
2019-05-07T03:41:39.496Z,21.73
2019-05-07T03:42:39.486Z,21.73
2019-05-07T03:43:39.500Z,21.67
2019-05-07T03:44:39.459Z,21.61
2019-05-07T03:45:39.449Z,21.70
2019-05-07T03:46:53.063Z,21.74
2019-05-07T03:47:43.545Z,21.75
2019-05-07T03:48:39.442Z,21.74
2019-05-07T03:49:39.422Z,21.79
2019-05-07T03:50:39.414Z,21.77
2019-05-07T03:51:39.395Z,21.81
2019-05-07T03:52:42.608Z,21.77
2019-05-07T03:53:39.390Z,21.79
2019-05-07T03:54:39.349Z,21.81
2019-05-07T03:55:39.363Z,21.81
2019-05-07T03:56:39.351Z,21.81
2019-05-07T03:57:39.321Z,21.77
2019-05-07T03:58:39.373Z,21.79
2019-05-07T03:59:39.301Z,21.81
2019-05-07T04:00:39.290Z,21.83
2019-05-07T04:01:49.920Z,21.79
2019-05-07T04:02:39.268Z,21.74
2019-05-07T04:03:39.257Z,21.79
2019-05-07T04:04:39.287Z,21.77
2019-05-07T04:05:39.233Z,21.79
2019-05-07T04:06:39.223Z,21.74
2019-05-07T04:07:39.218Z,21.79
2019-05-07T04:08:39.205Z,21.81
2019-05-07T04:09:39.208Z,21.77
2019-05-07T04:10:39.193Z,21.79
2019-05-07T04:11:39.181Z,21.74
2019-05-07T04:12:39.163Z,21.89
2019-05-07T04:13:39.156Z,21.85
2019-05-07T04:14:39.140Z,21.79
2019-05-07T04:15:39.153Z,21.79
2019-05-07T04:16:39.119Z,21.89
2019-05-07T04:17:39.114Z,21.77
2019-05-07T04:18:39.096Z,21.86
2019-05-07T04:19:39.085Z,21.74
2019-05-07T04:20:39.077Z,21.83
2019-05-07T04:21:39.084Z,21.89
2019-05-07T04:22:39.051Z,21.89
2019-05-07T04:23:39.041Z,21.90
2019-05-07T04:24:39.043Z,21.85
2019-05-07T04:25:39.036Z,21.83
2019-05-07T04:26:39.017Z,21.86
2019-05-07T04:27:39.035Z,21.85
2019-05-07T04:28:38.995Z,21.89
2019-05-07T04:29:38.980Z,21.82
2019-05-07T04:30:38.982Z,21.93
2019-05-07T04:31:38.968Z,21.85
2019-05-07T04:32:52.785Z,21.77
2019-05-07T04:33:38.935Z,21.90
2019-05-07T04:34:38.922Z,21.90
2019-05-07T04:35:38.921Z,21.90
2019-05-07T04:36:38.911Z,21.90
2019-05-07T04:37:38.887Z,21.86
2019-05-07T04:38:38.916Z,21.81
2019-05-07T04:39:38.870Z,21.89
2019-05-07T04:40:38.863Z,21.90
2019-05-07T04:41:38.855Z,21.79
2019-05-07T04:42:38.851Z,21.83
2019-05-07T04:43:38.825Z,21.82
2019-05-07T04:44:38.859Z,21.86
2019-05-07T04:45:38.816Z,21.81
2019-05-07T04:46:38.798Z,21.83
2019-05-07T04:47:46.356Z,21.85
2019-05-07T04:48:39.775Z,21.83
2019-05-07T04:49:38.764Z,21.90
2019-05-07T04:50:43.545Z,21.82
2019-05-07T04:51:39.792Z,21.81
2019-05-07T04:52:38.729Z,21.85
2019-05-07T04:53:38.737Z,21.82
2019-05-07T04:54:38.715Z,21.75
2019-05-07T04:55:38.701Z,21.74
2019-05-07T04:56:38.683Z,21.79
2019-05-07T04:57:38.710Z,21.82
2019-05-07T04:58:38.664Z,21.90
2019-05-07T04:59:38.658Z,21.86
2019-05-07T05:00:38.642Z,21.79
2019-05-07T05:01:38.628Z,21.90
2019-05-07T05:02:38.630Z,21.89
2019-05-07T05:03:54.005Z,21.82
2019-05-07T05:04:38.611Z,21.89
2019-05-07T05:05:38.587Z,21.90
2019-05-07T05:06:38.577Z,21.89
2019-05-07T05:07:38.569Z,21.86
2019-05-07T05:08:38.553Z,21.89
2019-05-07T05:09:38.590Z,21.91
2019-05-07T05:10:38.546Z,21.94
2019-05-07T05:11:38.542Z,21.91
2019-05-07T05:12:38.516Z,21.91
2019-05-07T05:13:38.509Z,22.04
2019-05-07T05:14:38.510Z,22.08
2019-05-07T05:15:38.518Z,22.12
2019-05-07T05:16:38.490Z,22.30
2019-05-07T05:17:49.709Z,22.41
2019-05-07T05:18:39.448Z,22.46
2019-05-07T05:19:38.434Z,22.64
2019-05-07T05:20:38.430Z,22.64
2019-05-07T05:21:38.431Z,22.79
2019-05-07T05:22:38.406Z,22.85
2019-05-07T05:23:38.404Z,22.91
2019-05-07T05:24:38.384Z,22.94
2019-05-07T05:25:38.413Z,23.14
2019-05-07T05:26:38.360Z,23.21
2019-05-07T05:27:38.365Z,23.22
2019-05-07T05:28:38.341Z,23.23
2019-05-07T05:29:38.326Z,23.34
2019-05-07T05:30:38.323Z,23.34
2019-05-07T05:31:38.317Z,23.41
2019-05-07T05:32:38.292Z,23.42
2019-05-07T05:33:38.290Z,23.45
2019-05-07T05:34:51.943Z,23.56
2019-05-07T05:35:38.266Z,23.62
2019-05-07T05:36:38.273Z,23.54
2019-05-07T05:37:38.245Z,23.64
2019-05-07T05:38:38.228Z,23.69
2019-05-07T05:39:38.226Z,23.71
2019-05-07T05:40:38.210Z,23.77
2019-05-07T05:41:38.212Z,23.75
2019-05-07T05:42:38.315Z,23.78
2019-05-07T05:43:38.181Z,23.81
2019-05-07T05:44:38.170Z,23.87
2019-05-07T05:45:38.156Z,23.87
2019-05-07T05:46:38.146Z,23.93
2019-05-07T05:47:38.134Z,23.92
2019-05-07T05:48:38.138Z,23.87
2019-05-07T05:49:38.115Z,23.97
2019-05-07T05:50:38.098Z,23.99
2019-05-07T05:51:38.099Z,24.04
2019-05-07T05:52:38.076Z,24.04
2019-05-07T05:53:38.068Z,24.05
2019-05-07T05:54:38.068Z,24.09
2019-05-07T05:55:38.047Z,24.19
2019-05-07T05:56:38.039Z,24.19
2019-05-07T05:57:38.028Z,24.23
2019-05-07T05:58:38.032Z,24.16
2019-05-07T05:59:48.974Z,24.19
2019-05-07T06:00:38.991Z,24.23
2019-05-07T06:01:37.985Z,24.34
2019-05-07T06:02:37.982Z,24.34
2019-05-07T06:03:37.959Z,24.33
2019-05-07T06:04:37.952Z,24.31
2019-05-07T06:05:48.990Z,24.33
2019-05-07T06:06:37.926Z,24.42
2019-05-07T06:07:37.922Z,24.51
2019-05-07T06:08:37.915Z,24.41
2019-05-07T06:09:37.894Z,24.45
2019-05-07T06:10:37.892Z,24.56
2019-05-07T06:11:37.891Z,24.44
2019-05-07T06:12:37.871Z,24.44
2019-05-07T06:13:37.877Z,24.49
2019-05-07T06:14:37.847Z,24.44
2019-05-07T06:15:37.837Z,24.49
2019-05-07T06:16:37.832Z,24.53
2019-05-07T06:17:37.817Z,24.52
2019-05-07T06:18:37.801Z,24.53
2019-05-07T06:19:37.832Z,24.52
2019-05-07T06:20:37.779Z,24.56
2019-05-07T06:21:37.767Z,24.51
2019-05-07T06:22:37.763Z,24.52
2019-05-07T06:23:37.765Z,24.53
2019-05-07T06:24:37.751Z,24.48
2019-05-07T06:25:37.765Z,24.53
2019-05-07T06:26:37.716Z,24.55
2019-05-07T06:27:37.718Z,24.56
2019-05-07T06:28:37.699Z,24.56
2019-05-07T06:29:37.691Z,24.52
2019-05-07T06:30:37.673Z,24.52
2019-05-07T06:31:37.745Z,24.56
2019-05-07T06:32:37.657Z,24.56
2019-05-07T06:33:37.649Z,24.51
2019-05-07T06:34:37.632Z,24.52
2019-05-07T06:35:37.723Z,24.56
2019-05-07T06:36:48.528Z,24.52
2019-05-07T06:37:37.599Z,24.60
2019-05-07T06:38:37.591Z,24.52
2019-05-07T06:39:37.580Z,24.53
2019-05-07T06:40:37.571Z,24.52
2019-05-07T06:41:37.563Z,24.51
2019-05-07T06:42:37.557Z,24.56
2019-05-07T06:43:37.538Z,24.51
2019-05-07T06:44:37.531Z,24.56
2019-05-07T06:45:37.533Z,24.51
2019-05-07T06:46:38.843Z,24.51
2019-05-07T06:47:37.512Z,24.55
2019-05-07T06:48:42.267Z,24.52
2019-05-07T06:49:38.483Z,24.56
2019-05-07T06:50:37.459Z,24.61
2019-05-07T06:51:37.451Z,24.60
2019-05-07T06:52:37.444Z,24.59
2019-05-07T06:53:37.437Z,24.55
2019-05-07T06:54:37.423Z,24.64
2019-05-07T06:55:37.413Z,24.67
2019-05-07T06:56:37.410Z,24.71
2019-05-07T06:57:37.387Z,24.70
2019-05-07T06:58:37.412Z,24.75
2019-05-07T06:59:37.367Z,24.74
2019-05-07T07:00:37.354Z,24.70
2019-05-07T07:01:37.342Z,24.79
2019-05-07T07:02:37.342Z,24.77
2019-05-07T07:03:37.331Z,24.79
2019-05-07T07:04:37.359Z,24.79
2019-05-07T07:05:37.302Z,24.77
2019-05-07T07:06:37.291Z,24.87
2019-05-07T07:07:47.456Z,24.79
2019-05-07T07:08:37.276Z,24.80
2019-05-07T07:09:37.259Z,24.82
2019-05-07T07:10:37.264Z,24.79
2019-05-07T07:11:37.281Z,24.82
2019-05-07T07:12:37.263Z,24.79
2019-05-07T07:13:37.223Z,24.79
2019-05-07T07:14:37.205Z,24.83
2019-05-07T07:15:37.239Z,24.83
2019-05-07T07:16:37.184Z,24.82
2019-05-07T07:17:37.177Z,24.87
2019-05-07T07:18:48.618Z,24.86
2019-05-07T07:19:38.217Z,24.86
2019-05-07T07:20:37.146Z,24.80
2019-05-07T07:21:37.176Z,24.74
2019-05-07T07:22:37.128Z,24.87
2019-05-07T07:23:37.118Z,24.82
2019-05-07T07:24:37.100Z,24.82
2019-05-07T07:25:37.088Z,24.82
2019-05-07T07:26:37.077Z,24.89
2019-05-07T07:27:37.091Z,24.83
2019-05-07T07:28:37.058Z,24.93
2019-05-07T07:29:37.060Z,24.87
2019-05-07T07:30:37.036Z,24.89
2019-05-07T07:31:37.027Z,24.86
2019-05-07T07:32:37.019Z,24.80
2019-05-07T07:33:37.042Z,24.83
2019-05-07T07:34:36.997Z,24.80
2019-05-07T07:35:36.987Z,24.82
2019-05-07T07:36:36.979Z,24.90
2019-05-07T07:37:36.962Z,24.82
2019-05-07T07:38:47.079Z,24.94
2019-05-07T07:39:36.939Z,24.77
2019-05-07T07:40:36.933Z,24.93
2019-05-07T07:41:36.920Z,24.79
2019-05-07T07:42:36.914Z,24.83
2019-05-07T07:43:36.902Z,24.93
2019-05-07T07:44:36.934Z,24.87
2019-05-07T07:45:36.882Z,24.82
2019-05-07T07:46:36.870Z,24.83
2019-05-07T07:47:36.856Z,24.77
2019-05-07T07:48:36.852Z,24.84
2019-05-07T07:49:36.839Z,24.80
2019-05-07T07:50:36.865Z,24.86
2019-05-07T07:51:41.765Z,24.84
2019-05-07T07:52:37.803Z,24.89
2019-05-07T07:53:36.799Z,24.86
2019-05-07T07:54:36.784Z,24.77
2019-05-07T07:55:36.779Z,24.79
2019-05-07T07:56:49.124Z,24.82
2019-05-07T07:57:37.753Z,24.80
2019-05-07T07:58:36.741Z,24.82
2019-05-07T07:59:36.735Z,24.77
2019-05-07T08:00:36.730Z,24.77
2019-05-07T08:01:36.709Z,24.82
2019-05-07T08:02:36.734Z,24.86
2019-05-07T08:03:36.689Z,24.80
2019-05-07T08:04:36.674Z,24.77
2019-05-07T08:05:36.665Z,24.68
2019-05-07T08:06:36.655Z,24.79
2019-05-07T08:07:36.649Z,24.70
2019-05-07T08:08:36.648Z,24.70
2019-05-07T08:09:46.970Z,24.74
2019-05-07T08:10:36.611Z,24.67
2019-05-07T08:11:36.613Z,24.67
2019-05-07T08:12:36.601Z,24.64
2019-05-07T08:13:36.618Z,24.64
2019-05-07T08:14:36.575Z,24.68
2019-05-07T08:15:36.561Z,24.64
2019-05-07T08:16:36.547Z,24.55
2019-05-07T08:17:36.542Z,24.63
2019-05-07T08:18:36.601Z,24.63
2019-05-07T08:19:36.528Z,24.55
2019-05-07T08:20:36.506Z,24.55
2019-05-07T08:21:36.498Z,24.60
2019-05-07T08:22:36.490Z,24.60
2019-05-07T08:23:36.481Z,24.61
2019-05-07T08:24:36.503Z,24.56
2019-05-07T08:25:36.452Z,24.52
2019-05-07T08:26:36.441Z,24.52
2019-05-07T08:27:36.438Z,24.46
2019-05-07T08:28:36.429Z,24.59
2019-05-07T08:29:36.413Z,24.52
2019-05-07T08:30:36.447Z,24.56
2019-05-07T08:31:36.390Z,24.48
2019-05-07T08:32:36.379Z,24.46
2019-05-07T08:33:36.373Z,24.60
2019-05-07T08:34:36.360Z,24.51
2019-05-07T08:35:36.348Z,24.44
2019-05-07T08:36:36.354Z,24.45
2019-05-07T08:37:36.332Z,24.41
2019-05-07T08:38:36.314Z,24.46
2019-05-07T08:39:36.306Z,24.41
2019-05-07T08:40:48.947Z,24.39
2019-05-07T08:41:36.283Z,24.44
2019-05-07T08:42:36.322Z,24.52
2019-05-07T08:43:36.268Z,24.41
2019-05-07T08:44:36.249Z,24.42
2019-05-07T08:45:36.370Z,24.44
2019-05-07T08:46:36.235Z,24.41
2019-05-07T08:47:36.226Z,24.42
2019-05-07T08:48:36.254Z,24.41
2019-05-07T08:49:39.884Z,24.37
2019-05-07T08:50:36.188Z,24.42
2019-05-07T08:51:36.177Z,24.39
2019-05-07T08:52:36.169Z,24.45
2019-05-07T08:53:36.155Z,24.42
2019-05-07T08:54:36.181Z,24.45
2019-05-07T08:55:36.146Z,24.45
2019-05-07T08:56:36.157Z,24.42
2019-05-07T08:57:36.118Z,24.33
2019-05-07T08:58:36.107Z,24.33
2019-05-07T08:59:36.091Z,24.34
2019-05-07T09:00:36.128Z,24.27
2019-05-07T09:01:36.073Z,24.29
2019-05-07T09:02:36.058Z,24.31
2019-05-07T09:03:36.050Z,24.31
2019-05-07T09:04:36.045Z,24.27
2019-05-07T09:05:36.029Z,24.26
2019-05-07T09:06:36.083Z,24.37
2019-05-07T09:07:36.014Z,24.33
2019-05-07T09:08:35.995Z,24.37
2019-05-07T09:09:35.991Z,24.37
2019-05-07T09:10:35.975Z,24.33
2019-05-07T09:11:46.690Z,24.26
2019-05-07T09:12:35.957Z,24.23
2019-05-07T09:13:35.943Z,24.24
2019-05-07T09:14:35.931Z,24.30
2019-05-07T09:15:35.927Z,24.24
2019-05-07T09:16:35.981Z,24.24
2019-05-07T09:17:35.905Z,24.21
2019-05-07T09:18:35.887Z,24.29
2019-05-07T09:19:47.252Z,24.21
2019-05-07T09:20:36.869Z,24.24
2019-05-07T09:21:35.860Z,24.30
2019-05-07T09:22:35.863Z,24.19
2019-05-07T09:23:35.837Z,24.19
2019-05-07T09:24:35.829Z,24.23
2019-05-07T09:25:35.816Z,24.19
2019-05-07T09:26:35.808Z,24.26
2019-05-07T09:27:35.794Z,24.23
2019-05-07T09:28:35.827Z,24.19
2019-05-07T09:29:35.776Z,24.18
2019-05-07T09:30:35.767Z,24.21
2019-05-07T09:31:35.749Z,24.18
2019-05-07T09:32:35.742Z,24.16
2019-05-07T09:33:35.735Z,24.16
2019-05-07T09:34:35.734Z,24.19
2019-05-07T09:35:35.713Z,24.18
2019-05-07T09:36:35.698Z,24.19
2019-05-07T09:37:35.687Z,24.19
2019-05-07T09:38:35.683Z,24.23
2019-05-07T09:39:35.669Z,24.19
2019-05-07T09:40:35.662Z,24.24
2019-05-07T09:41:35.685Z,24.19
2019-05-07T09:42:45.972Z,24.19
2019-05-07T09:43:35.626Z,24.23
2019-05-07T09:44:35.617Z,24.21
2019-05-07T09:45:35.602Z,24.21
2019-05-07T09:46:35.587Z,24.16
2019-05-07T09:47:35.592Z,24.23
2019-05-07T09:48:35.574Z,24.15
2019-05-07T09:49:35.565Z,24.21
2019-05-07T09:50:35.548Z,24.23
2019-05-07T09:51:35.537Z,24.19
2019-05-07T09:52:35.570Z,24.16
2019-05-07T09:53:35.516Z,24.19
2019-05-07T09:54:35.510Z,24.21
2019-05-07T09:55:35.491Z,24.16
2019-05-07T09:56:35.481Z,24.16
2019-05-07T09:57:35.473Z,24.18
2019-05-07T09:58:38.945Z,24.15
2019-05-07T09:59:35.456Z,24.21
2019-05-07T10:00:35.452Z,24.23
2019-05-07T10:01:35.428Z,24.19
2019-05-07T10:02:35.423Z,24.24
2019-05-07T10:03:35.409Z,24.16
2019-05-07T10:04:35.438Z,24.11
2019-05-07T10:05:35.394Z,24.16
2019-05-07T10:06:35.378Z,24.11
2019-05-07T10:07:35.363Z,24.14
2019-05-07T10:08:35.357Z,24.11
2019-05-07T10:09:35.344Z,24.14
2019-05-07T10:10:35.342Z,24.18
2019-05-07T10:11:35.319Z,24.18
2019-05-07T10:12:35.316Z,24.11
2019-05-07T10:13:47.105Z,24.14
2019-05-07T10:14:35.287Z,24.18
2019-05-07T10:15:35.323Z,24.15
2019-05-07T10:16:35.271Z,24.16
2019-05-07T10:17:35.260Z,24.14
2019-05-07T10:18:35.255Z,24.11
2019-05-07T10:19:35.239Z,24.11
2019-05-07T10:20:35.226Z,24.12
2019-05-07T10:21:35.258Z,24.15
2019-05-07T10:22:35.210Z,24.15
2019-05-07T10:23:35.206Z,24.15
2019-05-07T10:24:35.189Z,24.14
2019-05-07T10:25:35.176Z,24.16
2019-05-07T10:26:35.163Z,24.16
2019-05-07T10:27:35.207Z,24.11
2019-05-07T10:28:35.143Z,24.15
2019-05-07T10:29:35.131Z,24.15
2019-05-07T10:30:35.120Z,24.18
2019-05-07T10:31:35.106Z,24.09
2019-05-07T10:32:35.095Z,24.16
2019-05-07T10:33:35.125Z,24.12
2019-05-07T10:34:35.076Z,24.12
2019-05-07T10:35:35.067Z,24.12
2019-05-07T10:36:35.060Z,24.06
2019-05-07T10:37:35.043Z,24.11
2019-05-07T10:38:35.036Z,24.14
2019-05-07T10:39:35.038Z,24.14
2019-05-07T10:40:35.011Z,24.05
2019-05-07T10:41:35.003Z,24.09
2019-05-07T10:42:35.030Z,24.06
2019-05-07T10:43:34.980Z,24.00
2019-05-07T10:44:46.302Z,24.04
2019-05-07T10:45:34.979Z,24.14
2019-05-07T10:46:34.950Z,24.12
2019-05-07T10:47:34.951Z,24.14
2019-05-07T10:48:34.937Z,24.11
2019-05-07T10:49:34.931Z,24.12
2019-05-07T10:50:38.894Z,24.15
2019-05-07T10:51:34.904Z,24.15
2019-05-07T10:52:34.892Z,24.14
2019-05-07T10:53:34.876Z,24.18
2019-05-07T10:54:34.902Z,24.11
2019-05-07T10:55:34.888Z,24.21
2019-05-07T10:56:34.982Z,24.19
2019-05-07T10:57:34.834Z,24.21
2019-05-07T10:58:34.822Z,24.19
2019-05-07T10:59:34.816Z,24.21
2019-05-07T11:00:34.815Z,24.18
2019-05-07T11:01:34.828Z,24.24
2019-05-07T11:02:34.782Z,24.24
2019-05-07T11:03:34.802Z,24.33
2019-05-07T11:04:42.078Z,24.37
2019-05-07T11:05:35.744Z,24.31
2019-05-07T11:06:34.738Z,24.33
2019-05-07T11:07:34.821Z,24.42
2019-05-07T11:08:34.720Z,24.45
2019-05-07T11:09:34.711Z,24.41
2019-05-07T11:10:34.698Z,24.39
2019-05-07T11:11:34.683Z,24.42
2019-05-07T11:12:34.697Z,24.39
2019-05-07T11:13:34.680Z,24.48
2019-05-07T11:14:34.652Z,24.48
2019-05-07T11:15:44.878Z,24.48
2019-05-07T11:16:34.634Z,24.49
2019-05-07T11:17:34.626Z,24.52
2019-05-07T11:18:34.629Z,24.53
2019-05-07T11:19:34.635Z,24.53
2019-05-07T11:20:46.471Z,24.55
2019-05-07T11:21:35.577Z,24.59
2019-05-07T11:22:34.576Z,24.52
2019-05-07T11:23:34.562Z,24.60
2019-05-07T11:24:34.551Z,24.55
2019-05-07T11:25:34.576Z,24.60
2019-05-07T11:26:34.522Z,24.53
2019-05-07T11:27:34.516Z,24.56
2019-05-07T11:28:34.629Z,24.64
2019-05-07T11:29:36.553Z,24.52
2019-05-07T11:30:34.493Z,24.53
2019-05-07T11:31:34.478Z,24.53
2019-05-07T11:32:34.464Z,24.53
2019-05-07T11:33:34.453Z,24.61
2019-05-07T11:34:34.441Z,24.63
2019-05-07T11:35:34.434Z,24.67
2019-05-07T11:36:34.584Z,24.59
2019-05-07T11:37:34.410Z,24.59
2019-05-07T11:38:34.398Z,24.55
2019-05-07T11:39:34.392Z,24.52
2019-05-07T11:40:34.791Z,24.63
2019-05-07T11:41:34.364Z,24.66
2019-05-07T11:42:34.368Z,24.70
2019-05-07T11:43:34.346Z,24.61
2019-05-07T11:44:34.332Z,24.66
2019-05-07T11:45:34.327Z,24.70
2019-05-07T11:46:45.036Z,24.74
2019-05-07T11:47:34.327Z,24.63
2019-05-07T11:48:36.341Z,24.66
2019-05-07T11:49:34.278Z,24.70
2019-05-07T11:50:34.269Z,24.71
2019-05-07T11:51:34.264Z,24.71
2019-05-07T11:52:35.846Z,24.64
2019-05-07T11:53:34.292Z,24.68
2019-05-07T11:54:34.229Z,24.77
2019-05-07T11:55:34.216Z,24.75
2019-05-07T11:56:34.208Z,24.71
2019-05-07T11:57:34.196Z,24.66
2019-05-07T11:58:34.190Z,24.70
2019-05-07T11:59:34.217Z,24.71
2019-05-07T12:00:34.166Z,24.71
2019-05-07T12:01:43.547Z,24.63
2019-05-07T12:02:35.140Z,24.71
2019-05-07T12:03:34.136Z,24.71
2019-05-07T12:04:34.119Z,24.74
2019-05-07T12:05:34.150Z,24.71
2019-05-07T12:06:34.100Z,24.70
2019-05-07T12:07:34.087Z,24.66
2019-05-07T12:08:41.182Z,24.64
2019-05-07T12:09:35.070Z,24.68
2019-05-07T12:10:34.058Z,24.67
2019-05-07T12:11:34.055Z,24.74
2019-05-07T12:12:34.040Z,24.67
2019-05-07T12:13:34.031Z,24.66
2019-05-07T12:14:35.027Z,24.63
2019-05-07T12:15:34.097Z,24.64
2019-05-07T12:16:33.991Z,24.63
2019-05-07T12:17:44.008Z,24.64
2019-05-07T12:18:33.974Z,24.60
2019-05-07T12:19:33.963Z,24.71
2019-05-07T12:20:33.952Z,24.66
2019-05-07T12:21:33.979Z,24.66
2019-05-07T12:22:33.966Z,24.61
2019-05-07T12:23:33.923Z,24.59
2019-05-07T12:24:33.908Z,24.49
2019-05-07T12:25:33.899Z,24.55
2019-05-07T12:26:33.889Z,24.59
2019-05-07T12:27:33.913Z,24.53
2019-05-07T12:28:33.870Z,24.63
2019-05-07T12:29:33.860Z,24.51
2019-05-07T12:30:33.849Z,24.52
2019-05-07T12:31:33.837Z,24.56
2019-05-07T12:32:33.825Z,24.60
2019-05-07T12:33:33.823Z,24.51
2019-05-07T12:34:33.806Z,24.59
2019-05-07T12:35:33.819Z,24.53
2019-05-07T12:36:33.786Z,24.52
2019-05-07T12:37:33.776Z,24.52
2019-05-07T12:38:33.802Z,24.55
2019-05-07T12:39:33.755Z,24.49
2019-05-07T12:40:33.738Z,24.53
2019-05-07T12:41:34.438Z,24.55
2019-05-07T12:42:33.715Z,24.59
2019-05-07T12:43:33.718Z,24.53
2019-05-07T12:44:33.734Z,24.51
2019-05-07T12:45:33.684Z,24.53
2019-05-07T12:46:33.708Z,24.52
2019-05-07T12:47:33.671Z,24.49
2019-05-07T12:48:43.789Z,24.53
2019-05-07T12:49:33.651Z,24.60
2019-05-07T12:50:33.645Z,24.48
2019-05-07T12:51:37.405Z,24.51
2019-05-07T12:52:33.617Z,24.51